sensor_id;sensor_type;location;lat;lon;timestamp;temperature;humidity
84298;DHT22;74466;51.188;3.242;2024-01-11T00:01:08;-2.20;74.20
84298;DHT22;74466;51.188;3.242;2024-01-11T00:03:33;-2.10;74.90
84298;DHT22;74466;51.188;3.242;2024-01-11T00:06:01;-2.20;74.20
84298;DHT22;74466;51.188;3.242;2024-01-11T00:08:26;-2.20;74.30
84298;DHT22;74466;51.188;3.242;2024-01-11T00:10:52;-2.20;74.30
84298;DHT22;74466;51.188;3.242;2024-01-11T00:13:18;-2.20;74.20
84298;DHT22;74466;51.188;3.242;2024-01-11T00:15:43;-2.20;75.30
84298;DHT22;74466;51.188;3.242;2024-01-11T00:18:09;-2.30;75.50
84298;DHT22;74466;51.188;3.242;2024-01-11T00:20:35;-2.30;75.60
84298;DHT22;74466;51.188;3.242;2024-01-11T00:23:00;-2.30;75.70
84298;DHT22;74466;51.188;3.242;2024-01-11T00:25:26;-2.30;76.40
84298;DHT22;74466;51.188;3.242;2024-01-11T00:27:52;-2.40;76.00
84298;DHT22;74466;51.188;3.242;2024-01-11T00:30:17;-2.60;77.30
84298;DHT22;74466;51.188;3.242;2024-01-11T00:32:43;-2.50;77.20
84298;DHT22;74466;51.188;3.242;2024-01-11T00:35:09;-2.50;76.80
84298;DHT22;74466;51.188;3.242;2024-01-11T00:37:35;-2.60;76.60
84298;DHT22;74466;51.188;3.242;2024-01-11T00:40:01;-2.50;77.70
84298;DHT22;74466;51.188;3.242;2024-01-11T00:42:27;-2.60;78.60
84298;DHT22;74466;51.188;3.242;2024-01-11T00:44:52;-2.50;79.30
84298;DHT22;74466;51.188;3.242;2024-01-11T00:47:18;-2.50;79.60
84298;DHT22;74466;51.188;3.242;2024-01-11T00:49:44;-2.60;79.20
84298;DHT22;74466;51.188;3.242;2024-01-11T00:52:10;-2.70;79.80
84298;DHT22;74466;51.188;3.242;2024-01-11T00:54:39;-2.70;80.10
84298;DHT22;74466;51.188;3.242;2024-01-11T00:57:04;-2.60;79.80
84298;DHT22;74466;51.188;3.242;2024-01-11T00:59:30;-2.70;80.10
84298;DHT22;74466;51.188;3.242;2024-01-11T01:01:56;-2.60;79.90
84298;DHT22;74466;51.188;3.242;2024-01-11T01:04:21;-2.70;79.90
84298;DHT22;74466;51.188;3.242;2024-01-11T01:06:47;-2.50;80.20
84298;DHT22;74466;51.188;3.242;2024-01-11T01:09:13;-2.60;80.70
84298;DHT22;74466;51.188;3.242;2024-01-11T01:11:39;-2.60;81.00
84298;DHT22;74466;51.188;3.242;2024-01-11T01:14:05;-2.70;81.50
84298;DHT22;74466;51.188;3.242;2024-01-11T01:16:31;-2.50;81.90
84298;DHT22;74466;51.188;3.242;2024-01-11T01:18:56;-2.50;81.40
84298;DHT22;74466;51.188;3.242;2024-01-11T01:21:22;-2.50;81.70
84298;DHT22;74466;51.188;3.242;2024-01-11T01:23:48;-2.50;82.00
84298;DHT22;74466;51.188;3.242;2024-01-11T01:26:14;-2.50;82.80
84298;DHT22;74466;51.188;3.242;2024-01-11T01:28:39;-2.50;83.10
84298;DHT22;74466;51.188;3.242;2024-01-11T01:31:05;-2.50;83.10
84298;DHT22;74466;51.188;3.242;2024-01-11T01:33:31;-2.50;83.10
84298;DHT22;74466;51.188;3.242;2024-01-11T01:35:57;-2.40;82.80
84298;DHT22;74466;51.188;3.242;2024-01-11T01:38:23;-2.40;82.60
84298;DHT22;74466;51.188;3.242;2024-01-11T01:40:49;-2.30;83.00
84298;DHT22;74466;51.188;3.242;2024-01-11T01:43:14;-2.30;82.50
84298;DHT22;74466;51.188;3.242;2024-01-11T01:45:40;-2.30;82.60
84298;DHT22;74466;51.188;3.242;2024-01-11T01:48:07;-2.30;82.90
84298;DHT22;74466;51.188;3.242;2024-01-11T01:50:33;-2.30;82.70
84298;DHT22;74466;51.188;3.242;2024-01-11T01:52:59;-2.30;82.60
84298;DHT22;74466;51.188;3.242;2024-01-11T01:55:26;-2.30;82.60
84298;DHT22;74466;51.188;3.242;2024-01-11T01:57:53;-2.20;82.60
84298;DHT22;74466;51.188;3.242;2024-01-11T02:00:19;-2.20;82.30
84298;DHT22;74466;51.188;3.242;2024-01-11T02:02:46;-2.20;82.00
84298;DHT22;74466;51.188;3.242;2024-01-11T02:05:16;-2.10;81.60
84298;DHT22;74466;51.188;3.242;2024-01-11T02:07:43;-2.20;81.60
84298;DHT22;74466;51.188;3.242;2024-01-11T02:10:09;-2.20;81.90
84298;DHT22;74466;51.188;3.242;2024-01-11T02:12:36;-2.20;81.80
84298;DHT22;74466;51.188;3.242;2024-01-11T02:15:03;-2.30;82.00
84298;DHT22;74466;51.188;3.242;2024-01-11T02:17:30;-2.30;81.90
84298;DHT22;74466;51.188;3.242;2024-01-11T02:19:56;-2.30;82.00
84298;DHT22;74466;51.188;3.242;2024-01-11T02:22:28;-2.30;82.60
84298;DHT22;74466;51.188;3.242;2024-01-11T02:24:54;-2.40;82.80
84298;DHT22;74466;51.188;3.242;2024-01-11T02:27:21;-2.50;82.30
84298;DHT22;74466;51.188;3.242;2024-01-11T02:29:47;-2.50;82.50
84298;DHT22;74466;51.188;3.242;2024-01-11T02:32:12;-2.50;82.80
84298;DHT22;74466;51.188;3.242;2024-01-11T02:34:38;-2.50;83.00
84298;DHT22;74466;51.188;3.242;2024-01-11T02:37:06;-2.50;83.10
84298;DHT22;74466;51.188;3.242;2024-01-11T02:39:32;-2.50;83.20
84298;DHT22;74466;51.188;3.242;2024-01-11T02:41:59;-2.50;83.00
84298;DHT22;74466;51.188;3.242;2024-01-11T02:44:25;-2.60;83.30
84298;DHT22;74466;51.188;3.242;2024-01-11T02:46:50;-2.60;83.30
84298;DHT22;74466;51.188;3.242;2024-01-11T02:49:16;-2.60;83.50
84298;DHT22;74466;51.188;3.242;2024-01-11T02:51:42;-2.60;83.30
84298;DHT22;74466;51.188;3.242;2024-01-11T02:54:08;-2.50;83.10
84298;DHT22;74466;51.188;3.242;2024-01-11T02:56:33;-2.50;83.00
84298;DHT22;74466;51.188;3.242;2024-01-11T02:58:59;-2.60;82.90
84298;DHT22;74466;51.188;3.242;2024-01-11T03:01:25;-2.60;83.60
84298;DHT22;74466;51.188;3.242;2024-01-11T03:03:51;-2.60;83.40
84298;DHT22;74466;51.188;3.242;2024-01-11T03:06:16;-2.70;83.30
84298;DHT22;74466;51.188;3.242;2024-01-11T03:08:47;-2.70;83.50
84298;DHT22;74466;51.188;3.242;2024-01-11T03:11:13;-2.70;83.90
84298;DHT22;74466;51.188;3.242;2024-01-11T03:13:39;-2.70;84.10
84298;DHT22;74466;51.188;3.242;2024-01-11T03:16:05;-2.60;84.40
84298;DHT22;74466;51.188;3.242;2024-01-11T03:18:31;-2.70;84.40
84298;DHT22;74466;51.188;3.242;2024-01-11T03:20:57;-2.70;84.60
84298;DHT22;74466;51.188;3.242;2024-01-11T03:23:23;-2.70;84.50
84298;DHT22;74466;51.188;3.242;2024-01-11T03:25:49;-2.70;85.00
84298;DHT22;74466;51.188;3.242;2024-01-11T03:28:15;-2.70;84.90
84298;DHT22;74466;51.188;3.242;2024-01-11T03:30:41;-2.60;84.90
84298;DHT22;74466;51.188;3.242;2024-01-11T03:33:06;-2.60;84.80
84298;DHT22;74466;51.188;3.242;2024-01-11T03:35:32;-2.60;84.60
84298;DHT22;74466;51.188;3.242;2024-01-11T03:37:58;-2.50;84.40
84298;DHT22;74466;51.188;3.242;2024-01-11T03:40:23;-2.60;84.20
84298;DHT22;74466;51.188;3.242;2024-01-11T03:42:49;-2.60;84.30
84298;DHT22;74466;51.188;3.242;2024-01-11T03:45:18;-2.50;84.30
84298;DHT22;74466;51.188;3.242;2024-01-11T03:47:44;-2.50;84.10
84298;DHT22;74466;51.188;3.242;2024-01-11T03:50:10;-2.60;84.00
84298;DHT22;74466;51.188;3.242;2024-01-11T03:52:36;-2.60;83.90
84298;DHT22;74466;51.188;3.242;2024-01-11T03:55:02;-2.60;84.30
84298;DHT22;74466;51.188;3.242;2024-01-11T03:57:29;-2.60;84.40
84298;DHT22;74466;51.188;3.242;2024-01-11T03:59:55;-2.60;84.70
84298;DHT22;74466;51.188;3.242;2024-01-11T04:02:20;-2.70;84.40
84298;DHT22;74466;51.188;3.242;2024-01-11T04:04:46;-2.70;85.40
84298;DHT22;74466;51.188;3.242;2024-01-11T04:07:12;-2.70;84.70
84298;DHT22;74466;51.188;3.242;2024-01-11T04:09:38;-2.70;84.60
84298;DHT22;74466;51.188;3.242;2024-01-11T04:12:04;-2.70;84.60
84298;DHT22;74466;51.188;3.242;2024-01-11T04:14:31;-2.70;84.60
84298;DHT22;74466;51.188;3.242;2024-01-11T04:16:57;-2.70;84.30
84298;DHT22;74466;51.188;3.242;2024-01-11T04:19:23;-2.70;84.10
84298;DHT22;74466;51.188;3.242;2024-01-11T04:21:48;-2.80;84.40
84298;DHT22;74466;51.188;3.242;2024-01-11T04:24:14;-2.80;84.80
84298;DHT22;74466;51.188;3.242;2024-01-11T04:26:40;-2.80;84.80
84298;DHT22;74466;51.188;3.242;2024-01-11T04:29:06;-2.80;84.80
84298;DHT22;74466;51.188;3.242;2024-01-11T04:31:31;-2.60;84.20
84298;DHT22;74466;51.188;3.242;2024-01-11T04:33:57;-2.60;83.70
84298;DHT22;74466;51.188;3.242;2024-01-11T04:36:23;-2.70;83.90
84298;DHT22;74466;51.188;3.242;2024-01-11T04:38:49;-2.80;84.10
84298;DHT22;74466;51.188;3.242;2024-01-11T04:41:15;-2.90;85.00
84298;DHT22;74466;51.188;3.242;2024-01-11T04:43:42;-3.00;85.70
84298;DHT22;74466;51.188;3.242;2024-01-11T04:46:20;-3.00;85.50
84298;DHT22;74466;51.188;3.242;2024-01-11T04:48:47;-3.00;85.30
84298;DHT22;74466;51.188;3.242;2024-01-11T04:51:15;-3.00;85.20
84298;DHT22;74466;51.188;3.242;2024-01-11T04:53:41;-3.10;85.50
84298;DHT22;74466;51.188;3.242;2024-01-11T04:56:08;-3.10;85.80
84298;DHT22;74466;51.188;3.242;2024-01-11T04:58:45;-3.10;86.10
84298;DHT22;74466;51.188;3.242;2024-01-11T05:01:16;-3.10;86.10
84298;DHT22;74466;51.188;3.242;2024-01-11T05:03:46;-3.10;85.90
84298;DHT22;74466;51.188;3.242;2024-01-11T05:06:16;-3.10;86.20
84298;DHT22;74466;51.188;3.242;2024-01-11T05:08:46;-3.00;86.30
84298;DHT22;74466;51.188;3.242;2024-01-11T05:11:19;-3.10;86.30
84298;DHT22;74466;51.188;3.242;2024-01-11T05:13:45;-3.00;86.10
84298;DHT22;74466;51.188;3.242;2024-01-11T05:18:48;-3.00;86.00
84298;DHT22;74466;51.188;3.242;2024-01-11T05:21:13;-3.00;85.80
84298;DHT22;74466;51.188;3.242;2024-01-11T05:23:40;-3.00;86.00
84298;DHT22;74466;51.188;3.242;2024-01-11T05:26:10;-3.10;86.10
84298;DHT22;74466;51.188;3.242;2024-01-11T05:28:36;-3.10;86.00
84298;DHT22;74466;51.188;3.242;2024-01-11T05:31:07;-3.10;86.00
84298;DHT22;74466;51.188;3.242;2024-01-11T05:33:33;-3.10;86.10
84298;DHT22;74466;51.188;3.242;2024-01-11T05:35:59;-3.10;86.50
84298;DHT22;74466;51.188;3.242;2024-01-11T05:38:25;-3.10;86.60
84298;DHT22;74466;51.188;3.242;2024-01-11T05:40:50;-3.10;86.70
84298;DHT22;74466;51.188;3.242;2024-01-11T05:43:16;-3.10;86.50
84298;DHT22;74466;51.188;3.242;2024-01-11T05:45:42;-3.10;86.70
84298;DHT22;74466;51.188;3.242;2024-01-11T05:48:07;-3.10;86.50
84298;DHT22;74466;51.188;3.242;2024-01-11T05:50:33;-3.10;86.30
84298;DHT22;74466;51.188;3.242;2024-01-11T05:52:58;-3.10;86.50
84298;DHT22;74466;51.188;3.242;2024-01-11T05:55:24;-2.90;86.30
84298;DHT22;74466;51.188;3.242;2024-01-11T05:57:50;-2.90;85.40
84298;DHT22;74466;51.188;3.242;2024-01-11T06:00:16;-3.00;85.20
84298;DHT22;74466;51.188;3.242;2024-01-11T06:02:42;-3.10;85.90
84298;DHT22;74466;51.188;3.242;2024-01-11T06:05:08;-3.10;86.20
84298;DHT22;74466;51.188;3.242;2024-01-11T06:07:35;-3.10;86.50
84298;DHT22;74466;51.188;3.242;2024-01-11T06:10:01;-3.20;86.80
84298;DHT22;74466;51.188;3.242;2024-01-11T06:12:28;-3.20;87.30
84298;DHT22;74466;51.188;3.242;2024-01-11T06:14:54;-3.20;87.20
84298;DHT22;74466;51.188;3.242;2024-01-11T06:17:20;-3.20;87.60
84298;DHT22;74466;51.188;3.242;2024-01-11T06:19:46;-3.10;88.10
84298;DHT22;74466;51.188;3.242;2024-01-11T06:22:11;-3.20;88.20
84298;DHT22;74466;51.188;3.242;2024-01-11T06:24:37;-3.10;88.30
84298;DHT22;74466;51.188;3.242;2024-01-11T06:27:03;-3.10;88.50
84298;DHT22;74466;51.188;3.242;2024-01-11T06:29:28;-3.00;88.10
84298;DHT22;74466;51.188;3.242;2024-01-11T06:31:54;-2.90;87.80
84298;DHT22;74466;51.188;3.242;2024-01-11T06:34:20;-2.90;87.40
84298;DHT22;74466;51.188;3.242;2024-01-11T06:36:46;-2.90;87.30
84298;DHT22;74466;51.188;3.242;2024-01-11T06:39:12;-2.90;87.20
84298;DHT22;74466;51.188;3.242;2024-01-11T06:41:38;-2.90;87.50
84298;DHT22;74466;51.188;3.242;2024-01-11T06:44:04;-2.90;87.40
84298;DHT22;74466;51.188;3.242;2024-01-11T06:46:29;-2.90;87.50
84298;DHT22;74466;51.188;3.242;2024-01-11T06:48:56;-2.90;87.60
84298;DHT22;74466;51.188;3.242;2024-01-11T06:51:22;-2.90;87.50
84298;DHT22;74466;51.188;3.242;2024-01-11T06:53:48;-2.80;87.40
84298;DHT22;74466;51.188;3.242;2024-01-11T06:56:15;-2.80;86.70
84298;DHT22;74466;51.188;3.242;2024-01-11T06:58:42;-2.80;86.80
84298;DHT22;74466;51.188;3.242;2024-01-11T07:01:08;-2.80;86.60
84298;DHT22;74466;51.188;3.242;2024-01-11T07:03:34;-2.80;86.60
84298;DHT22;74466;51.188;3.242;2024-01-11T07:05:59;-2.80;86.80
84298;DHT22;74466;51.188;3.242;2024-01-11T07:08:25;-2.80;86.80
84298;DHT22;74466;51.188;3.242;2024-01-11T07:10:51;-2.70;86.50
84298;DHT22;74466;51.188;3.242;2024-01-11T07:13:16;-2.70;86.40
84298;DHT22;74466;51.188;3.242;2024-01-11T07:15:43;-2.70;86.30
84298;DHT22;74466;51.188;3.242;2024-01-11T07:18:09;-2.70;86.50
84298;DHT22;74466;51.188;3.242;2024-01-11T07:20:34;-2.70;86.10
84298;DHT22;74466;51.188;3.242;2024-01-11T07:23:00;-2.60;86.30
84298;DHT22;74466;51.188;3.242;2024-01-11T07:25:26;-2.50;86.10
84298;DHT22;74466;51.188;3.242;2024-01-11T07:27:52;-2.60;85.80
84298;DHT22;74466;51.188;3.242;2024-01-11T07:30:18;-2.60;85.80
84298;DHT22;74466;51.188;3.242;2024-01-11T07:32:44;-2.60;85.60
84298;DHT22;74466;51.188;3.242;2024-01-11T07:35:10;-2.60;85.40
84298;DHT22;74466;51.188;3.242;2024-01-11T07:37:37;-2.70;85.70
84298;DHT22;74466;51.188;3.242;2024-01-11T07:40:03;-2.70;85.60
84298;DHT22;74466;51.188;3.242;2024-01-11T07:42:30;-2.60;85.30
84298;DHT22;74466;51.188;3.242;2024-01-11T07:44:55;-2.50;85.00
84298;DHT22;74466;51.188;3.242;2024-01-11T07:47:21;-2.50;84.70
84298;DHT22;74466;51.188;3.242;2024-01-11T07:49:47;-2.40;84.60
84298;DHT22;74466;51.188;3.242;2024-01-11T07:52:13;-2.40;84.50
84298;DHT22;74466;51.188;3.242;2024-01-11T07:54:39;-2.40;84.00
84298;DHT22;74466;51.188;3.242;2024-01-11T07:57:05;-2.30;84.20
84298;DHT22;74466;51.188;3.242;2024-01-11T07:59:34;-2.40;84.20
84298;DHT22;74466;51.188;3.242;2024-01-11T08:02:02;-2.40;84.60
84298;DHT22;74466;51.188;3.242;2024-01-11T08:04:27;-2.40;84.40
84298;DHT22;74466;51.188;3.242;2024-01-11T08:06:53;-2.40;85.90
84298;DHT22;74466;51.188;3.242;2024-01-11T08:09:19;-2.40;84.80
84298;DHT22;74466;51.188;3.242;2024-01-11T08:11:44;-2.40;84.70
84298;DHT22;74466;51.188;3.242;2024-01-11T08:14:11;-2.40;84.40
84298;DHT22;74466;51.188;3.242;2024-01-11T08:16:37;-2.30;84.60
84298;DHT22;74466;51.188;3.242;2024-01-11T08:19:03;-2.40;84.60
84298;DHT22;74466;51.188;3.242;2024-01-11T08:21:29;-2.30;84.40
84298;DHT22;74466;51.188;3.242;2024-01-11T08:23:54;-2.20;84.40
84298;DHT22;74466;51.188;3.242;2024-01-11T08:26:20;-2.20;84.00
84298;DHT22;74466;51.188;3.242;2024-01-11T08:28:47;-2.10;84.00
84298;DHT22;74466;51.188;3.242;2024-01-11T08:31:13;-2.10;83.80
84298;DHT22;74466;51.188;3.242;2024-01-11T08:33:39;-2.10;83.80
84298;DHT22;74466;51.188;3.242;2024-01-11T08:36:05;-2.00;83.80
84298;DHT22;74466;51.188;3.242;2024-01-11T08:38:32;-2.00;83.50
84298;DHT22;74466;51.188;3.242;2024-01-11T08:40:58;-2.00;83.30
84298;DHT22;74466;51.188;3.242;2024-01-11T08:43:28;-1.90;82.90
84298;DHT22;74466;51.188;3.242;2024-01-11T08:45:54;-1.70;82.70
84298;DHT22;74466;51.188;3.242;2024-01-11T08:48:20;-1.70;82.60
84298;DHT22;74466;51.188;3.242;2024-01-11T08:50:46;-1.70;82.50
84298;DHT22;74466;51.188;3.242;2024-01-11T08:53:12;-1.60;82.60
84298;DHT22;74466;51.188;3.242;2024-01-11T08:55:38;-1.60;82.40
84298;DHT22;74466;51.188;3.242;2024-01-11T08:58:04;-1.60;82.20
84298;DHT22;74466;51.188;3.242;2024-01-11T09:00:29;-1.50;82.40
84298;DHT22;74466;51.188;3.242;2024-01-11T09:02:55;-1.40;82.20
84298;DHT22;74466;51.188;3.242;2024-01-11T09:05:21;-1.30;82.00
84298;DHT22;74466;51.188;3.242;2024-01-11T09:07:47;-1.20;81.80
84298;DHT22;74466;51.188;3.242;2024-01-11T09:10:13;-0.90;81.70
84298;DHT22;74466;51.188;3.242;2024-01-11T09:12:38;-0.40;79.70
84298;DHT22;74466;51.188;3.242;2024-01-11T09:15:06;0.20;78.50
84298;DHT22;74466;51.188;3.242;2024-01-11T09:17:32;1.00;75.50
84298;DHT22;74466;51.188;3.242;2024-01-11T09:19:58;1.40;73.40
84298;DHT22;74466;51.188;3.242;2024-01-11T09:22:23;1.40;72.90
84298;DHT22;74466;51.188;3.242;2024-01-11T09:24:49;1.50;72.30
84298;DHT22;74466;51.188;3.242;2024-01-11T09:27:15;1.40;72.00
84298;DHT22;74466;51.188;3.242;2024-01-11T09:29:47;1.40;73.20
84298;DHT22;74466;51.188;3.242;2024-01-11T09:32:13;1.30;73.20
84298;DHT22;74466;51.188;3.242;2024-01-11T09:34:39;1.30;73.20
84298;DHT22;74466;51.188;3.242;2024-01-11T09:37:05;1.20;74.90
84298;DHT22;74466;51.188;3.242;2024-01-11T09:39:30;1.30;73.70
84298;DHT22;74466;51.188;3.242;2024-01-11T09:42:07;1.30;73.60
84298;DHT22;74466;51.188;3.242;2024-01-11T09:44:36;1.40;73.00
84298;DHT22;74466;51.188;3.242;2024-01-11T09:47:04;1.40;73.20
84298;DHT22;74466;51.188;3.242;2024-01-11T09:49:32;1.40;72.80
84298;DHT22;74466;51.188;3.242;2024-01-11T09:52:00;1.40;73.00
84298;DHT22;74466;51.188;3.242;2024-01-11T09:54:27;1.50;72.30
84298;DHT22;74466;51.188;3.242;2024-01-11T09:56:54;1.60;72.50
84298;DHT22;74466;51.188;3.242;2024-01-11T09:59:20;1.40;71.70
84298;DHT22;74466;51.188;3.242;2024-01-11T10:01:49;1.50;72.10
84298;DHT22;74466;51.188;3.242;2024-01-11T10:04:16;1.50;72.00
84298;DHT22;74466;51.188;3.242;2024-01-11T10:06:42;1.60;71.80
84298;DHT22;74466;51.188;3.242;2024-01-11T10:09:08;1.50;72.30
84298;DHT22;74466;51.188;3.242;2024-01-11T10:11:34;1.60;71.90
84298;DHT22;74466;51.188;3.242;2024-01-11T10:14:00;1.80;72.60
84298;DHT22;74466;51.188;3.242;2024-01-11T10:16:28;1.90;71.40
84298;DHT22;74466;51.188;3.242;2024-01-11T10:18:55;2.00;71.00
84298;DHT22;74466;51.188;3.242;2024-01-11T10:21:21;2.10;72.00
84298;DHT22;74466;51.188;3.242;2024-01-11T10:23:47;2.20;71.50
84298;DHT22;74466;51.188;3.242;2024-01-11T10:26:15;2.10;70.70
84298;DHT22;74466;51.188;3.242;2024-01-11T10:28:44;2.20;74.30
84298;DHT22;74466;51.188;3.242;2024-01-11T10:31:10;2.30;75.50
84298;DHT22;74466;51.188;3.242;2024-01-11T10:33:36;2.30;75.60
84298;DHT22;74466;51.188;3.242;2024-01-11T10:36:04;2.20;74.80
84298;DHT22;74466;51.188;3.242;2024-01-11T10:38:36;2.30;74.40
84298;DHT22;74466;51.188;3.242;2024-01-11T10:41:05;2.40;75.40
84298;DHT22;74466;51.188;3.242;2024-01-11T10:43:32;2.50;76.30
84298;DHT22;74466;51.188;3.242;2024-01-11T10:46:00;2.60;72.10
84298;DHT22;74466;51.188;3.242;2024-01-11T10:48:30;2.60;72.30
84298;DHT22;74466;51.188;3.242;2024-01-11T10:50:59;2.60;73.60
84298;DHT22;74466;51.188;3.242;2024-01-11T10:53:31;2.70;70.80
84298;DHT22;74466;51.188;3.242;2024-01-11T10:56:03;2.80;70.80
84298;DHT22;74466;51.188;3.242;2024-01-11T10:58:34;2.80;68.10
84298;DHT22;74466;51.188;3.242;2024-01-11T11:01:02;2.90;72.00
84298;DHT22;74466;51.188;3.242;2024-01-11T11:03:30;2.80;71.90
84298;DHT22;74466;51.188;3.242;2024-01-11T11:05:58;2.80;70.90
84298;DHT22;74466;51.188;3.242;2024-01-11T11:08:24;2.80;72.20
84298;DHT22;74466;51.188;3.242;2024-01-11T11:10:56;2.80;71.90
84298;DHT22;74466;51.188;3.242;2024-01-11T11:13:23;2.90;70.90
84298;DHT22;74466;51.188;3.242;2024-01-11T11:15:49;2.90;69.50
84298;DHT22;74466;51.188;3.242;2024-01-11T11:18:15;2.80;69.40
84298;DHT22;74466;51.188;3.242;2024-01-11T11:20:42;2.90;71.60
84298;DHT22;74466;51.188;3.242;2024-01-11T11:23:09;3.00;70.50
84298;DHT22;74466;51.188;3.242;2024-01-11T11:25:36;3.00;73.40
84298;DHT22;74466;51.188;3.242;2024-01-11T11:28:03;3.20;74.10
84298;DHT22;74466;51.188;3.242;2024-01-11T11:30:41;3.20;71.80
84298;DHT22;74466;51.188;3.242;2024-01-11T11:33:23;3.10;71.90
84298;DHT22;74466;51.188;3.242;2024-01-11T11:35:52;3.20;72.40
84298;DHT22;74466;51.188;3.242;2024-01-11T11:38:26;3.30;71.60
84298;DHT22;74466;51.188;3.242;2024-01-11T11:40:53;3.30;71.10
84298;DHT22;74466;51.188;3.242;2024-01-11T11:43:23;3.40;72.80
84298;DHT22;74466;51.188;3.242;2024-01-11T11:45:50;3.40;73.00
84298;DHT22;74466;51.188;3.242;2024-01-11T11:53:36;3.50;74.00
84298;DHT22;74466;51.188;3.242;2024-01-11T11:56:03;3.60;71.70
84298;DHT22;74466;51.188;3.242;2024-01-11T11:58:30;3.60;70.70
84298;DHT22;74466;51.188;3.242;2024-01-11T12:00:58;3.70;69.20
84298;DHT22;74466;51.188;3.242;2024-01-11T12:03:32;3.70;70.60
84298;DHT22;74466;51.188;3.242;2024-01-11T12:06:00;3.70;68.70
84298;DHT22;74466;51.188;3.242;2024-01-11T12:08:26;3.70;67.20
84298;DHT22;74466;51.188;3.242;2024-01-11T12:10:52;3.70;68.20
84298;DHT22;74466;51.188;3.242;2024-01-11T12:13:18;3.70;68.00
84298;DHT22;74466;51.188;3.242;2024-01-11T12:15:44;3.70;69.40
84298;DHT22;74466;51.188;3.242;2024-01-11T12:18:10;3.90;70.90
84298;DHT22;74466;51.188;3.242;2024-01-11T12:20:36;3.90;65.70
84298;DHT22;74466;51.188;3.242;2024-01-11T12:23:02;3.90;61.30
84298;DHT22;74466;51.188;3.242;2024-01-11T12:25:29;4.00;62.80
84298;DHT22;74466;51.188;3.242;2024-01-11T12:27:55;4.00;65.60
84298;DHT22;74466;51.188;3.242;2024-01-11T12:30:26;4.10;63.50
84298;DHT22;74466;51.188;3.242;2024-01-11T12:32:53;4.20;59.70
84298;DHT22;74466;51.188;3.242;2024-01-11T12:35:19;4.30;67.30
84298;DHT22;74466;51.188;3.242;2024-01-11T12:37:54;4.50;63.70
84298;DHT22;74466;51.188;3.242;2024-01-11T12:40:21;4.50;65.50
84298;DHT22;74466;51.188;3.242;2024-01-11T12:42:46;4.50;60.60
84298;DHT22;74466;51.188;3.242;2024-01-11T12:45:15;4.50;57.80
84298;DHT22;74466;51.188;3.242;2024-01-11T12:47:41;4.50;64.40
84298;DHT22;74466;51.188;3.242;2024-01-11T12:50:07;4.30;54.70
84298;DHT22;74466;51.188;3.242;2024-01-11T12:52:33;4.40;58.60
84298;DHT22;74466;51.188;3.242;2024-01-11T12:54:59;4.30;57.90
84298;DHT22;74466;51.188;3.242;2024-01-11T12:57:25;4.20;58.50
84298;DHT22;74466;51.188;3.242;2024-01-11T12:59:52;4.30;62.10
84298;DHT22;74466;51.188;3.242;2024-01-11T13:02:18;4.30;62.00
84298;DHT22;74466;51.188;3.242;2024-01-11T13:04:45;4.20;62.60
84298;DHT22;74466;51.188;3.242;2024-01-11T13:07:13;4.10;60.60
84298;DHT22;74466;51.188;3.242;2024-01-11T13:09:41;4.10;67.40
84298;DHT22;74466;51.188;3.242;2024-01-11T13:12:07;4.20;66.80
84298;DHT22;74466;51.188;3.242;2024-01-11T13:14:33;4.00;68.00
84298;DHT22;74466;51.188;3.242;2024-01-11T13:16:59;4.10;68.50
84298;DHT22;74466;51.188;3.242;2024-01-11T13:19:25;4.20;71.70
84298;DHT22;74466;51.188;3.242;2024-01-11T13:21:50;4.20;68.10
84298;DHT22;74466;51.188;3.242;2024-01-11T13:24:17;4.30;75.40
84298;DHT22;74466;51.188;3.242;2024-01-11T13:26:43;4.20;68.70
84298;DHT22;74466;51.188;3.242;2024-01-11T13:29:09;4.40;73.00
84298;DHT22;74466;51.188;3.242;2024-01-11T13:31:36;4.40;73.00
84298;DHT22;74466;51.188;3.242;2024-01-11T13:34:02;4.50;75.20
84298;DHT22;74466;51.188;3.242;2024-01-11T13:36:29;4.50;81.70
84298;DHT22;74466;51.188;3.242;2024-01-11T13:38:54;4.70;78.70
84298;DHT22;74466;51.188;3.242;2024-01-11T13:41:20;4.70;78.10
84298;DHT22;74466;51.188;3.242;2024-01-11T13:43:46;4.60;76.90
84298;DHT22;74466;51.188;3.242;2024-01-11T13:46:12;4.50;80.40
84298;DHT22;74466;51.188;3.242;2024-01-11T13:48:42;4.60;80.40
84298;DHT22;74466;51.188;3.242;2024-01-11T13:51:07;4.60;80.40
84298;DHT22;74466;51.188;3.242;2024-01-11T13:53:35;4.60;80.20
84298;DHT22;74466;51.188;3.242;2024-01-11T13:56:02;4.70;81.30
84298;DHT22;74466;51.188;3.242;2024-01-11T13:58:27;4.70;79.30
84298;DHT22;74466;51.188;3.242;2024-01-11T14:00:53;4.80;81.70
84298;DHT22;74466;51.188;3.242;2024-01-11T14:03:19;4.70;79.80
84298;DHT22;74466;51.188;3.242;2024-01-11T14:05:45;4.80;82.70
84298;DHT22;74466;51.188;3.242;2024-01-11T14:08:10;4.70;81.60
84298;DHT22;74466;51.188;3.242;2024-01-11T14:10:37;4.70;82.80
84298;DHT22;74466;51.188;3.242;2024-01-11T14:13:03;4.70;81.00
84298;DHT22;74466;51.188;3.242;2024-01-11T14:15:29;4.70;83.00
84298;DHT22;74466;51.188;3.242;2024-01-11T14:17:55;4.70;81.70
84298;DHT22;74466;51.188;3.242;2024-01-11T14:20:20;4.80;82.70
84298;DHT22;74466;51.188;3.242;2024-01-11T14:22:47;4.80;83.00
84298;DHT22;74466;51.188;3.242;2024-01-11T14:25:19;4.70;82.80
84298;DHT22;74466;51.188;3.242;2024-01-11T14:27:45;4.80;83.00
84298;DHT22;74466;51.188;3.242;2024-01-11T14:30:12;4.70;81.90
84298;DHT22;74466;51.188;3.242;2024-01-11T14:32:38;4.80;83.60
84298;DHT22;74466;51.188;3.242;2024-01-11T14:35:07;4.70;81.70
84298;DHT22;74466;51.188;3.242;2024-01-11T14:37:34;4.60;82.30
84298;DHT22;74466;51.188;3.242;2024-01-11T14:40:00;4.60;82.60
84298;DHT22;74466;51.188;3.242;2024-01-11T14:42:27;4.60;81.50
84298;DHT22;74466;51.188;3.242;2024-01-11T14:44:53;4.60;81.40
84298;DHT22;74466;51.188;3.242;2024-01-11T14:47:19;4.60;83.00
84298;DHT22;74466;51.188;3.242;2024-01-11T14:49:46;4.60;81.70
84298;DHT22;74466;51.188;3.242;2024-01-11T14:52:12;4.60;82.60
84298;DHT22;74466;51.188;3.242;2024-01-11T14:54:38;4.60;83.10
84298;DHT22;74466;51.188;3.242;2024-01-11T14:57:04;4.60;81.00
84298;DHT22;74466;51.188;3.242;2024-01-11T14:59:31;4.60;79.90
84298;DHT22;74466;51.188;3.242;2024-01-11T15:01:57;4.60;79.60
84298;DHT22;74466;51.188;3.242;2024-01-11T15:04:25;4.70;79.70
84298;DHT22;74466;51.188;3.242;2024-01-11T15:06:51;4.70;79.60
84298;DHT22;74466;51.188;3.242;2024-01-11T15:09:17;4.70;79.30
84298;DHT22;74466;51.188;3.242;2024-01-11T15:11:43;4.80;79.10
84298;DHT22;74466;51.188;3.242;2024-01-11T15:14:08;4.70;79.10
84298;DHT22;74466;51.188;3.242;2024-01-11T15:16:38;4.70;79.60
84298;DHT22;74466;51.188;3.242;2024-01-11T15:19:04;4.70;79.60
84298;DHT22;74466;51.188;3.242;2024-01-11T15:21:30;4.50;79.90
84298;DHT22;74466;51.188;3.242;2024-01-11T15:23:57;4.40;80.90
84298;DHT22;74466;51.188;3.242;2024-01-11T15:26:25;4.40;80.90
84298;DHT22;74466;51.188;3.242;2024-01-11T15:28:51;4.40;81.10
84298;DHT22;74466;51.188;3.242;2024-01-11T15:31:17;4.30;81.10
84298;DHT22;74466;51.188;3.242;2024-01-11T15:33:43;4.30;81.20
84298;DHT22;74466;51.188;3.242;2024-01-11T15:36:08;4.30;81.30
84298;DHT22;74466;51.188;3.242;2024-01-11T15:38:35;4.30;81.50
84298;DHT22;74466;51.188;3.242;2024-01-11T15:41:01;4.40;81.30